This is the latest recevied weather packets stored in our database for station/object G8SIB-9. If no packets are shown the sender has not sent any weather packets the latest 10 day(s).
| Time | Temp. | Humidity | Pressure | Rain* | Wind** | Luminosity | Snow |
|---|---|---|---|---|---|---|---|
| 1777744237 | 18.33° C | 51% | 1009.3 hPa | 0 mm | - | - | - |
| 1777743636 | 18.89° C | 52% | 1009.4 hPa | 0 mm | - | - | - |
| 1777743035 | 18.89° C | 52% | 1009.4 hPa | 0 mm | - | - | - |
| 1777742435 | 19.44° C | 50% | 1009.5 hPa | 0 mm | - | - | - |
| 1777741834 | 20.56° C | 47% | 1009.5 hPa | 0 mm | - | - | - |
| 1777741234 | 20.56° C | 47% | 1009.6 hPa | 0 mm | - | - | - |
| 1777740632 | 20.56° C | 47% | 1009.7 hPa | 0 mm | - | - | - |
| 1777740032 | 21.11° C | 47% | 1009.8 hPa | 0 mm | - | - | - |
| 1777739431 | 21.11° C | 46% | 1009.9 hPa | 0 mm | - | - | - |
| 1777738830 | 21.11° C | 45% | 1010 hPa | 0 mm | - | - | - |
| 1777738230 | 21.67° C | 44% | 1010.3 hPa | 0 mm | - | - | - |
| 1777737629 | 21.67° C | 44% | 1010.4 hPa | 0 mm | - | - | - |
| 1777737028 | 21.67° C | 44% | 1010.4 hPa | 0 mm | - | - | - |
| 1777736428 | 21.11° C | 45% | 1010.5 hPa | 0 mm | - | - | - |
| 1777735827 | 21.67° C | 44% | 1010.6 hPa | 0 mm | - | - | - |
| 1777735225 | 22.22° C | 44% | 1010.8 hPa | 0 mm | - | - | - |
| 1777734625 | 22.22° C | 44% | 1011 hPa | 0 mm | - | - | - |
| 1777734025 | 22.22° C | 45% | 1011.1 hPa | 0 mm | - | - | - |
| 1777733422 | 22.22° C | 44% | 1011.1 hPa | 0 mm | - | - | - |
| 1777732822 | 22.78° C | 43% | 1011.2 hPa | 0 mm | - | - | - |
| 1777732221 | 22.22° C | 45% | 1011.5 hPa | 0 mm | - | - | - |
| 1777731619 | 22.22° C | 45% | 1011.7 hPa | 0 mm | - | - | - |
| 1777731018 | 22.78° C | 44% | 1011.8 hPa | 0 mm | - | - | - |
| 1777730417 | 22.78° C | 44% | 1012 hPa | 0 mm | - | - | - |
| 1777729814 | 23.33° C | 43% | 1012 hPa | 0 mm | - | - | - |
* Rain latest hour (hover to see other rain measurements)
** Current wind speed in m/s (hover to see current wind gust speed)